sensor_id;sensor_type;location;lat;lon;timestamp;temperature;humidity
12152;DHT22;6139;51.274;7.128;2023-05-09T00:00:15;15.00;99.90
12152;DHT22;6139;51.274;7.128;2023-05-09T00:01:17;15.00;99.90
12152;DHT22;6139;51.274;7.128;2023-05-09T00:02:18;15.00;99.90
12152;DHT22;6139;51.274;7.128;2023-05-09T00:03:20;15.00;99.90
12152;DHT22;6139;51.274;7.128;2023-05-09T00:04:21;15.00;99.90
12152;DHT22;6139;51.274;7.128;2023-05-09T00:05:24;15.00;99.90
12152;DHT22;6139;51.274;7.128;2023-05-09T00:06:25;15.00;99.90
12152;DHT22;6139;51.274;7.128;2023-05-09T00:07:27;15.00;99.90
12152;DHT22;6139;51.274;7.128;2023-05-09T00:08:28;15.00;99.90
12152;DHT22;6139;51.274;7.128;2023-05-09T00:09:30;14.90;99.90
12152;DHT22;6139;51.274;7.128;2023-05-09T00:10:31;14.90;99.90
12152;DHT22;6139;51.274;7.128;2023-05-09T00:11:33;14.90;99.90
12152;DHT22;6139;51.274;7.128;2023-05-09T00:12:34;14.90;99.90
12152;DHT22;6139;51.274;7.128;2023-05-09T00:13:36;14.90;99.90
12152;DHT22;6139;51.274;7.128;2023-05-09T00:14:38;14.90;99.90
12152;DHT22;6139;51.274;7.128;2023-05-09T00:15:41;14.90;99.90
12152;DHT22;6139;51.274;7.128;2023-05-09T00:16:44;14.90;99.90
12152;DHT22;6139;51.274;7.128;2023-05-09T00:17:45;14.90;99.90
12152;DHT22;6139;51.274;7.128;2023-05-09T00:18:46;14.90;99.90
12152;DHT22;6139;51.274;7.128;2023-05-09T00:19:49;14.90;99.90
12152;DHT22;6139;51.274;7.128;2023-05-09T00:20:50;14.90;99.90
12152;DHT22;6139;51.274;7.128;2023-05-09T00:21:53;14.90;99.90
12152;DHT22;6139;51.274;7.128;2023-05-09T00:22:54;14.90;99.90
12152;DHT22;6139;51.274;7.128;2023-05-09T00:23:56;14.90;99.90
12152;DHT22;6139;51.274;7.128;2023-05-09T00:24:57;14.90;99.90
12152;DHT22;6139;51.274;7.128;2023-05-09T00:25:59;14.80;99.90
12152;DHT22;6139;51.274;7.128;2023-05-09T00:27:00;14.80;99.90
12152;DHT22;6139;51.274;7.128;2023-05-09T00:28:02;14.80;99.90
12152;DHT22;6139;51.274;7.128;2023-05-09T00:29:03;14.80;99.90
12152;DHT22;6139;51.274;7.128;2023-05-09T00:30:07;14.80;99.90
12152;DHT22;6139;51.274;7.128;2023-05-09T00:31:09;14.80;99.90
12152;DHT22;6139;51.274;7.128;2023-05-09T00:32:11;14.80;99.90
12152;DHT22;6139;51.274;7.128;2023-05-09T00:33:12;14.80;99.90
12152;DHT22;6139;51.274;7.128;2023-05-09T00:34:15;14.80;99.90
12152;DHT22;6139;51.274;7.128;2023-05-09T00:35:16;14.80;99.90
12152;DHT22;6139;51.274;7.128;2023-05-09T00:36:18;14.90;99.90
12152;DHT22;6139;51.274;7.128;2023-05-09T00:37:20;14.80;99.90
12152;DHT22;6139;51.274;7.128;2023-05-09T00:38:22;14.80;99.90
12152;DHT22;6139;51.274;7.128;2023-05-09T00:39:24;14.80;99.90
12152;DHT22;6139;51.274;7.128;2023-05-09T00:40:25;14.80;99.90
12152;DHT22;6139;51.274;7.128;2023-05-09T00:41:27;14.80;99.90
12152;DHT22;6139;51.274;7.128;2023-05-09T00:42:28;14.80;99.90
12152;DHT22;6139;51.274;7.128;2023-05-09T00:43:30;14.80;99.90
12152;DHT22;6139;51.274;7.128;2023-05-09T00:44:31;14.80;99.90
12152;DHT22;6139;51.274;7.128;2023-05-09T00:45:33;14.70;99.90
12152;DHT22;6139;51.274;7.128;2023-05-09T00:46:36;14.80;99.90
12152;DHT22;6139;51.274;7.128;2023-05-09T00:47:39;14.70;99.90
12152;DHT22;6139;51.274;7.128;2023-05-09T00:48:40;14.70;99.90
12152;DHT22;6139;51.274;7.128;2023-05-09T00:49:42;14.70;99.90
12152;DHT22;6139;51.274;7.128;2023-05-09T00:50:43;14.70;99.90
12152;DHT22;6139;51.274;7.128;2023-05-09T00:51:46;14.70;99.90
12152;DHT22;6139;51.274;7.128;2023-05-09T00:52:47;14.70;99.90
12152;DHT22;6139;51.274;7.128;2023-05-09T00:53:49;14.70;99.90
12152;DHT22;6139;51.274;7.128;2023-05-09T00:54:51;14.70;99.90
12152;DHT22;6139;51.274;7.128;2023-05-09T00:55:54;14.70;99.90
12152;DHT22;6139;51.274;7.128;2023-05-09T00:56:56;14.70;99.90
12152;DHT22;6139;51.274;7.128;2023-05-09T00:57:58;14.70;99.90
12152;DHT22;6139;51.274;7.128;2023-05-09T00:58:59;14.70;99.90
12152;DHT22;6139;51.274;7.128;2023-05-09T01:00:01;14.70;99.90
12152;DHT22;6139;51.274;7.128;2023-05-09T01:01:04;14.70;99.90
12152;DHT22;6139;51.274;7.128;2023-05-09T01:02:07;14.70;99.90
12152;DHT22;6139;51.274;7.128;2023-05-09T01:03:08;14.70;99.90
12152;DHT22;6139;51.274;7.128;2023-05-09T01:04:11;14.60;99.90
12152;DHT22;6139;51.274;7.128;2023-05-09T01:05:13;14.60;99.90
12152;DHT22;6139;51.274;7.128;2023-05-09T01:06:20;14.60;99.90
12152;DHT22;6139;51.274;7.128;2023-05-09T01:07:29;14.60;99.90
12152;DHT22;6139;51.274;7.128;2023-05-09T01:08:43;14.60;99.90
12152;DHT22;6139;51.274;7.128;2023-05-09T01:09:49;14.60;99.90
12152;DHT22;6139;51.274;7.128;2023-05-09T01:10:57;14.60;99.90
12152;DHT22;6139;51.274;7.128;2023-05-09T01:12:07;14.60;99.90
12152;DHT22;6139;51.274;7.128;2023-05-09T01:13:17;14.60;99.90
12152;DHT22;6139;51.274;7.128;2023-05-09T01:14:26;14.60;99.90
12152;DHT22;6139;51.274;7.128;2023-05-09T01:15:34;14.60;99.90
12152;DHT22;6139;51.274;7.128;2023-05-09T01:16:41;14.60;99.90
12152;DHT22;6139;51.274;7.128;2023-05-09T01:17:50;14.60;99.90
12152;DHT22;6139;51.274;7.128;2023-05-09T01:18:59;14.60;99.90
12152;DHT22;6139;51.274;7.128;2023-05-09T01:20:09;14.50;99.90
12152;DHT22;6139;51.274;7.128;2023-05-09T01:21:14;14.50;99.90
12152;DHT22;6139;51.274;7.128;2023-05-09T01:22:19;14.50;99.90
12152;DHT22;6139;51.274;7.128;2023-05-09T01:23:42;14.50;99.90
12152;DHT22;6139;51.274;7.128;2023-05-09T01:25:17;14.50;99.90
12152;DHT22;6139;51.274;7.128;2023-05-09T01:26:34;14.50;99.90
12152;DHT22;6139;51.274;7.128;2023-05-09T01:27:47;14.50;99.90
12152;DHT22;6139;51.274;7.128;2023-05-09T01:29:24;14.50;99.90
12152;DHT22;6139;51.274;7.128;2023-05-09T01:30:28;14.50;99.90
12152;DHT22;6139;51.274;7.128;2023-05-09T01:31:33;14.50;99.90
12152;DHT22;6139;51.274;7.128;2023-05-09T01:32:39;14.50;99.90
12152;DHT22;6139;51.274;7.128;2023-05-09T01:33:45;14.50;99.90
12152;DHT22;6139;51.274;7.128;2023-05-09T01:34:50;14.40;99.90
12152;DHT22;6139;51.274;7.128;2023-05-09T01:35:58;14.40;99.90
12152;DHT22;6139;51.274;7.128;2023-05-09T01:37:04;14.40;99.90
12152;DHT22;6139;51.274;7.128;2023-05-09T01:38:13;14.50;99.90
12152;DHT22;6139;51.274;7.128;2023-05-09T01:39:17;14.50;99.90
12152;DHT22;6139;51.274;7.128;2023-05-09T01:40:20;14.50;99.90
12152;DHT22;6139;51.274;7.128;2023-05-09T01:41:24;14.50;99.90
12152;DHT22;6139;51.274;7.128;2023-05-09T01:42:34;14.40;99.90
12152;DHT22;6139;51.274;7.128;2023-05-09T01:43:40;14.40;99.90
12152;DHT22;6139;51.274;7.128;2023-05-09T01:44:45;14.40;99.90
12152;DHT22;6139;51.274;7.128;2023-05-09T01:45:48;14.50;99.90
12152;DHT22;6139;51.274;7.128;2023-05-09T01:46:52;14.50;99.90
12152;DHT22;6139;51.274;7.128;2023-05-09T01:47:56;14.50;99.90
12152;DHT22;6139;51.274;7.128;2023-05-09T01:48:59;14.50;99.90
12152;DHT22;6139;51.274;7.128;2023-05-09T01:50:02;14.50;99.90
12152;DHT22;6139;51.274;7.128;2023-05-09T01:51:05;14.50;99.90
12152;DHT22;6139;51.274;7.128;2023-05-09T01:52:11;14.50;99.90
12152;DHT22;6139;51.274;7.128;2023-05-09T01:53:13;14.40;99.90
12152;DHT22;6139;51.274;7.128;2023-05-09T01:54:16;14.40;99.90
12152;DHT22;6139;51.274;7.128;2023-05-09T01:55:18;14.40;99.90
12152;DHT22;6139;51.274;7.128;2023-05-09T01:56:22;14.40;99.90
12152;DHT22;6139;51.274;7.128;2023-05-09T01:57:24;14.40;99.90
12152;DHT22;6139;51.274;7.128;2023-05-09T01:58:28;14.40;99.90
12152;DHT22;6139;51.274;7.128;2023-05-09T01:59:32;14.40;99.90
12152;DHT22;6139;51.274;7.128;2023-05-09T02:00:36;14.40;99.90
12152;DHT22;6139;51.274;7.128;2023-05-09T02:01:37;14.40;99.90
12152;DHT22;6139;51.274;7.128;2023-05-09T02:02:40;14.40;99.90
12152;DHT22;6139;51.274;7.128;2023-05-09T02:03:42;14.40;99.90
12152;DHT22;6139;51.274;7.128;2023-05-09T02:04:47;14.40;99.90
12152;DHT22;6139;51.274;7.128;2023-05-09T02:05:49;14.40;99.90
12152;DHT22;6139;51.274;7.128;2023-05-09T02:06:52;14.40;99.90
12152;DHT22;6139;51.274;7.128;2023-05-09T02:07:54;14.40;99.90
12152;DHT22;6139;51.274;7.128;2023-05-09T02:08:58;14.40;99.90
12152;DHT22;6139;51.274;7.128;2023-05-09T02:10:01;14.40;99.90
12152;DHT22;6139;51.274;7.128;2023-05-09T02:11:06;14.40;99.90
12152;DHT22;6139;51.274;7.128;2023-05-09T02:12:07;14.40;99.90
12152;DHT22;6139;51.274;7.128;2023-05-09T02:13:10;14.40;99.90
12152;DHT22;6139;51.274;7.128;2023-05-09T02:14:11;14.40;99.90
12152;DHT22;6139;51.274;7.128;2023-05-09T02:15:14;14.40;99.90
12152;DHT22;6139;51.274;7.128;2023-05-09T02:16:16;14.40;99.90
12152;DHT22;6139;51.274;7.128;2023-05-09T02:17:18;14.40;99.90
12152;DHT22;6139;51.274;7.128;2023-05-09T02:18:19;14.40;99.90
12152;DHT22;6139;51.274;7.128;2023-05-09T02:19:21;14.40;99.90
12152;DHT22;6139;51.274;7.128;2023-05-09T02:20:22;14.40;99.90
12152;DHT22;6139;51.274;7.128;2023-05-09T02:21:24;14.30;99.90
12152;DHT22;6139;51.274;7.128;2023-05-09T02:22:25;14.30;99.90
12152;DHT22;6139;51.274;7.128;2023-05-09T02:23:27;14.40;99.90
12152;DHT22;6139;51.274;7.128;2023-05-09T02:24:29;14.30;99.90
12152;DHT22;6139;51.274;7.128;2023-05-09T02:25:32;14.40;99.90
12152;DHT22;6139;51.274;7.128;2023-05-09T02:26:34;14.30;99.90
12152;DHT22;6139;51.274;7.128;2023-05-09T02:27:37;14.30;99.90
12152;DHT22;6139;51.274;7.128;2023-05-09T02:28:40;14.30;99.90
12152;DHT22;6139;51.274;7.128;2023-05-09T02:29:46;14.30;99.90
12152;DHT22;6139;51.274;7.128;2023-05-09T02:30:48;14.30;99.90
12152;DHT22;6139;51.274;7.128;2023-05-09T02:31:52;14.30;99.90
12152;DHT22;6139;51.274;7.128;2023-05-09T02:32:58;14.30;99.90
12152;DHT22;6139;51.274;7.128;2023-05-09T02:34:02;14.30;99.90
12152;DHT22;6139;51.274;7.128;2023-05-09T02:35:05;14.30;99.90
12152;DHT22;6139;51.274;7.128;2023-05-09T02:36:09;14.30;99.90
12152;DHT22;6139;51.274;7.128;2023-05-09T02:37:11;14.30;99.90
12152;DHT22;6139;51.274;7.128;2023-05-09T02:38:14;14.30;99.90
12152;DHT22;6139;51.274;7.128;2023-05-09T02:39:15;14.30;99.90
12152;DHT22;6139;51.274;7.128;2023-05-09T02:40:18;14.30;99.90
12152;DHT22;6139;51.274;7.128;2023-05-09T02:41:20;14.30;99.90
12152;DHT22;6139;51.274;7.128;2023-05-09T02:42:23;14.30;99.90
12152;DHT22;6139;51.274;7.128;2023-05-09T02:43:25;14.30;99.90
12152;DHT22;6139;51.274;7.128;2023-05-09T02:44:27;14.40;99.90
12152;DHT22;6139;51.274;7.128;2023-05-09T02:45:27;14.40;99.90
12152;DHT22;6139;51.274;7.128;2023-05-09T02:46:30;14.30;99.90
12152;DHT22;6139;51.274;7.128;2023-05-09T02:47:33;14.40;99.90
12152;DHT22;6139;51.274;7.128;2023-05-09T02:48:35;14.40;99.90
12152;DHT22;6139;51.274;7.128;2023-05-09T02:49:37;14.40;99.90
12152;DHT22;6139;51.274;7.128;2023-05-09T02:50:39;14.40;99.90
12152;DHT22;6139;51.274;7.128;2023-05-09T02:51:42;14.40;99.90
12152;DHT22;6139;51.274;7.128;2023-05-09T02:52:44;14.40;99.90
12152;DHT22;6139;51.274;7.128;2023-05-09T02:53:45;14.40;99.90
12152;DHT22;6139;51.274;7.128;2023-05-09T02:54:47;14.40;99.90
12152;DHT22;6139;51.274;7.128;2023-05-09T02:55:48;14.40;99.90
12152;DHT22;6139;51.274;7.128;2023-05-09T02:56:51;14.40;99.90
12152;DHT22;6139;51.274;7.128;2023-05-09T02:57:52;14.40;99.90
12152;DHT22;6139;51.274;7.128;2023-05-09T02:58:54;14.40;99.90
12152;DHT22;6139;51.274;7.128;2023-05-09T02:59:55;14.40;99.90
12152;DHT22;6139;51.274;7.128;2023-05-09T03:00:57;14.40;99.90
12152;DHT22;6139;51.274;7.128;2023-05-09T03:01:58;14.40;99.90
12152;DHT22;6139;51.274;7.128;2023-05-09T03:03:01;14.40;99.90
12152;DHT22;6139;51.274;7.128;2023-05-09T03:04:04;14.40;99.90
12152;DHT22;6139;51.274;7.128;2023-05-09T03:05:07;14.40;99.90
12152;DHT22;6139;51.274;7.128;2023-05-09T03:06:09;14.40;99.90
12152;DHT22;6139;51.274;7.128;2023-05-09T03:07:11;14.40;99.90
12152;DHT22;6139;51.274;7.128;2023-05-09T03:08:12;14.40;99.90
12152;DHT22;6139;51.274;7.128;2023-05-09T03:09:14;14.40;99.90
12152;DHT22;6139;51.274;7.128;2023-05-09T03:10:16;14.40;99.90
12152;DHT22;6139;51.274;7.128;2023-05-09T03:11:17;14.40;99.90
12152;DHT22;6139;51.274;7.128;2023-05-09T03:12:21;14.40;99.90
12152;DHT22;6139;51.274;7.128;2023-05-09T03:13:26;14.40;99.90
12152;DHT22;6139;51.274;7.128;2023-05-09T03:14:27;14.40;99.90
12152;DHT22;6139;51.274;7.128;2023-05-09T03:15:29;14.40;99.90
12152;DHT22;6139;51.274;7.128;2023-05-09T03:16:33;14.40;99.90
12152;DHT22;6139;51.274;7.128;2023-05-09T03:17:35;14.40;99.90
12152;DHT22;6139;51.274;7.128;2023-05-09T03:18:37;14.40;99.90
12152;DHT22;6139;51.274;7.128;2023-05-09T03:19:39;14.40;99.90
12152;DHT22;6139;51.274;7.128;2023-05-09T03:20:40;14.40;99.90
12152;DHT22;6139;51.274;7.128;2023-05-09T03:21:43;14.40;99.90
12152;DHT22;6139;51.274;7.128;2023-05-09T03:22:44;14.40;99.90
12152;DHT22;6139;51.274;7.128;2023-05-09T03:23:47;14.40;99.90
12152;DHT22;6139;51.274;7.128;2023-05-09T03:24:48;14.40;99.90
12152;DHT22;6139;51.274;7.128;2023-05-09T03:25:51;14.40;99.90
12152;DHT22;6139;51.274;7.128;2023-05-09T03:26:52;14.40;99.90
12152;DHT22;6139;51.274;7.128;2023-05-09T03:27:54;14.40;99.90
12152;DHT22;6139;51.274;7.128;2023-05-09T03:28:56;14.40;99.90
12152;DHT22;6139;51.274;7.128;2023-05-09T03:29:58;14.40;99.90
12152;DHT22;6139;51.274;7.128;2023-05-09T03:30:59;14.40;99.90
12152;DHT22;6139;51.274;7.128;2023-05-09T03:32:03;14.40;99.90
12152;DHT22;6139;51.274;7.128;2023-05-09T03:33:04;14.40;99.90
12152;DHT22;6139;51.274;7.128;2023-05-09T03:34:08;14.40;99.90
12152;DHT22;6139;51.274;7.128;2023-05-09T03:35:14;14.40;99.90
12152;DHT22;6139;51.274;7.128;2023-05-09T03:36:17;14.40;99.90
12152;DHT22;6139;51.274;7.128;2023-05-09T03:37:19;14.40;99.90
12152;DHT22;6139;51.274;7.128;2023-05-09T03:38:20;14.40;99.90
12152;DHT22;6139;51.274;7.128;2023-05-09T03:39:24;14.40;99.90
12152;DHT22;6139;51.274;7.128;2023-05-09T03:40:29;14.40;99.90
12152;DHT22;6139;51.274;7.128;2023-05-09T03:41:39;14.40;99.90
12152;DHT22;6139;51.274;7.128;2023-05-09T03:42:42;14.40;99.90
12152;DHT22;6139;51.274;7.128;2023-05-09T03:43:44;14.30;99.90
12152;DHT22;6139;51.274;7.128;2023-05-09T03:44:46;14.40;99.90
12152;DHT22;6139;51.274;7.128;2023-05-09T03:45:50;14.40;99.90
12152;DHT22;6139;51.274;7.128;2023-05-09T03:46:51;14.40;99.90
12152;DHT22;6139;51.274;7.128;2023-05-09T03:47:53;14.40;99.90
12152;DHT22;6139;51.274;7.128;2023-05-09T03:48:54;14.40;99.90
12152;DHT22;6139;51.274;7.128;2023-05-09T03:49:57;14.30;99.90
12152;DHT22;6139;51.274;7.128;2023-05-09T03:50:58;14.30;99.90
12152;DHT22;6139;51.274;7.128;2023-05-09T03:52:03;14.30;99.90
12152;DHT22;6139;51.274;7.128;2023-05-09T03:53:04;14.30;99.90
12152;DHT22;6139;51.274;7.128;2023-05-09T03:54:09;14.30;99.90
12152;DHT22;6139;51.274;7.128;2023-05-09T03:55:10;14.30;99.90
12152;DHT22;6139;51.274;7.128;2023-05-09T03:56:13;14.30;99.90
12152;DHT22;6139;51.274;7.128;2023-05-09T03:57:20;14.30;99.90
12152;DHT22;6139;51.274;7.128;2023-05-09T03:58:24;14.30;99.90
12152;DHT22;6139;51.274;7.128;2023-05-09T03:59:25;14.30;99.90
12152;DHT22;6139;51.274;7.128;2023-05-09T04:00:27;14.30;99.90
12152;DHT22;6139;51.274;7.128;2023-05-09T04:01:37;14.30;99.90
12152;DHT22;6139;51.274;7.128;2023-05-09T04:02:40;14.30;99.90
12152;DHT22;6139;51.274;7.128;2023-05-09T04:03:43;14.30;99.90
12152;DHT22;6139;51.274;7.128;2023-05-09T04:04:46;14.30;99.90
12152;DHT22;6139;51.274;7.128;2023-05-09T04:05:53;14.30;99.90
12152;DHT22;6139;51.274;7.128;2023-05-09T04:07:04;14.30;99.90
12152;DHT22;6139;51.274;7.128;2023-05-09T04:08:05;14.30;99.90
12152;DHT22;6139;51.274;7.128;2023-05-09T04:09:07;14.30;99.90
12152;DHT22;6139;51.274;7.128;2023-05-09T04:10:10;14.30;99.90
12152;DHT22;6139;51.274;7.128;2023-05-09T04:11:12;14.30;99.90
12152;DHT22;6139;51.274;7.128;2023-05-09T04:12:17;14.30;99.90
12152;DHT22;6139;51.274;7.128;2023-05-09T04:13:19;14.30;99.90
12152;DHT22;6139;51.274;7.128;2023-05-09T04:14:20;14.30;99.90
12152;DHT22;6139;51.274;7.128;2023-05-09T04:15:22;14.30;99.90
12152;DHT22;6139;51.274;7.128;2023-05-09T04:16:23;14.30;99.90
12152;DHT22;6139;51.274;7.128;2023-05-09T04:17:25;14.30;99.90
12152;DHT22;6139;51.274;7.128;2023-05-09T04:18:26;14.30;99.90
12152;DHT22;6139;51.274;7.128;2023-05-09T04:19:28;14.30;99.90
12152;DHT22;6139;51.274;7.128;2023-05-09T04:20:29;14.30;99.90
12152;DHT22;6139;51.274;7.128;2023-05-09T04:21:33;14.30;99.90
12152;DHT22;6139;51.274;7.128;2023-05-09T04:22:35;14.30;99.90
12152;DHT22;6139;51.274;7.128;2023-05-09T04:23:37;14.30;99.90
12152;DHT22;6139;51.274;7.128;2023-05-09T04:24:39;14.30;99.90
12152;DHT22;6139;51.274;7.128;2023-05-09T04:25:41;14.30;99.90
12152;DHT22;6139;51.274;7.128;2023-05-09T04:26:43;14.40;99.90
12152;DHT22;6139;51.274;7.128;2023-05-09T04:27:49;14.40;99.90
12152;DHT22;6139;51.274;7.128;2023-05-09T04:28:50;14.40;99.90
12152;DHT22;6139;51.274;7.128;2023-05-09T04:29:52;14.40;99.90
12152;DHT22;6139;51.274;7.128;2023-05-09T04:30:54;14.40;99.90
12152;DHT22;6139;51.274;7.128;2023-05-09T04:31:56;14.40;99.90
12152;DHT22;6139;51.274;7.128;2023-05-09T04:32:59;14.40;99.90
12152;DHT22;6139;51.274;7.128;2023-05-09T04:34:03;14.40;99.90
12152;DHT22;6139;51.274;7.128;2023-05-09T04:35:07;14.40;99.90
12152;DHT22;6139;51.274;7.128;2023-05-09T04:36:13;14.40;99.90
12152;DHT22;6139;51.274;7.128;2023-05-09T04:37:16;14.40;99.90
12152;DHT22;6139;51.274;7.128;2023-05-09T04:38:19;14.50;99.90
12152;DHT22;6139;51.274;7.128;2023-05-09T04:39:21;14.50;99.90
12152;DHT22;6139;51.274;7.128;2023-05-09T04:40:34;14.50;99.90
12152;DHT22;6139;51.274;7.128;2023-05-09T04:41:36;14.40;99.90
12152;DHT22;6139;51.274;7.128;2023-05-09T04:42:38;14.40;99.90
12152;DHT22;6139;51.274;7.128;2023-05-09T04:43:39;14.40;99.90
12152;DHT22;6139;51.274;7.128;2023-05-09T04:44:41;14.40;99.90
12152;DHT22;6139;51.274;7.128;2023-05-09T04:45:43;14.40;99.90
12152;DHT22;6139;51.274;7.128;2023-05-09T04:46:46;14.40;99.90
12152;DHT22;6139;51.274;7.128;2023-05-09T04:47:47;14.40;99.90
12152;DHT22;6139;51.274;7.128;2023-05-09T04:48:49;14.40;99.90
12152;DHT22;6139;51.274;7.128;2023-05-09T04:49:50;14.40;99.90
12152;DHT22;6139;51.274;7.128;2023-05-09T04:50:52;14.40;99.90
12152;DHT22;6139;51.274;7.128;2023-05-09T04:51:53;14.40;99.90
12152;DHT22;6139;51.274;7.128;2023-05-09T04:52:55;14.40;99.90
12152;DHT22;6139;51.274;7.128;2023-05-09T04:53:57;14.40;99.90
12152;DHT22;6139;51.274;7.128;2023-05-09T04:55:04;14.40;99.90
12152;DHT22;6139;51.274;7.128;2023-05-09T04:56:12;14.40;99.90
12152;DHT22;6139;51.274;7.128;2023-05-09T04:57:13;14.40;99.90
12152;DHT22;6139;51.274;7.128;2023-05-09T04:58:16;14.40;99.90
12152;DHT22;6139;51.274;7.128;2023-05-09T04:59:17;14.40;99.90
12152;DHT22;6139;51.274;7.128;2023-05-09T05:00:20;14.40;99.90
12152;DHT22;6139;51.274;7.128;2023-05-09T05:01:22;14.40;99.90
12152;DHT22;6139;51.274;7.128;2023-05-09T05:02:24;14.40;99.90
12152;DHT22;6139;51.274;7.128;2023-05-09T05:03:27;14.40;99.90
12152;DHT22;6139;51.274;7.128;2023-05-09T05:04:29;14.40;99.90
12152;DHT22;6139;51.274;7.128;2023-05-09T05:05:31;14.50;99.90
12152;DHT22;6139;51.274;7.128;2023-05-09T05:06:33;14.50;99.90
12152;DHT22;6139;51.274;7.128;2023-05-09T05:07:34;14.40;99.90
12152;DHT22;6139;51.274;7.128;2023-05-09T05:08:37;14.40;99.90
12152;DHT22;6139;51.274;7.128;2023-05-09T05:09:38;14.40;99.90
12152;DHT22;6139;51.274;7.128;2023-05-09T05:10:41;14.40;99.90
12152;DHT22;6139;51.274;7.128;2023-05-09T05:11:44;14.50;99.90
12152;DHT22;6139;51.274;7.128;2023-05-09T05:12:47;14.50;99.90
12152;DHT22;6139;51.274;7.128;2023-05-09T05:13:49;14.50;99.90
12152;DHT22;6139;51.274;7.128;2023-05-09T05:14:51;14.50;99.90
12152;DHT22;6139;51.274;7.128;2023-05-09T05:15:55;14.50;99.90
12152;DHT22;6139;51.274;7.128;2023-05-09T05:16:58;14.50;99.90
12152;DHT22;6139;51.274;7.128;2023-05-09T05:17:59;14.40;99.90
12152;DHT22;6139;51.274;7.128;2023-05-09T05:19:05;14.50;99.90
12152;DHT22;6139;51.274;7.128;2023-05-09T05:20:10;14.50;99.90
12152;DHT22;6139;51.274;7.128;2023-05-09T05:21:16;14.50;99.90
12152;DHT22;6139;51.274;7.128;2023-05-09T05:22:18;14.50;99.90
12152;DHT22;6139;51.274;7.128;2023-05-09T05:23:21;14.50;99.90
12152;DHT22;6139;51.274;7.128;2023-05-09T05:24:26;14.50;99.90
12152;DHT22;6139;51.274;7.128;2023-05-09T05:25:30;14.50;99.90
12152;DHT22;6139;51.274;7.128;2023-05-09T05:26:33;14.50;99.90
12152;DHT22;6139;51.274;7.128;2023-05-09T05:27:35;14.50;99.90
12152;DHT22;6139;51.274;7.128;2023-05-09T05:28:37;14.50;99.90
12152;DHT22;6139;51.274;7.128;2023-05-09T05:29:38;14.50;99.90
12152;DHT22;6139;51.274;7.128;2023-05-09T05:30:40;14.50;99.90
12152;DHT22;6139;51.274;7.128;2023-05-09T05:31:41;14.60;99.90
12152;DHT22;6139;51.274;7.128;2023-05-09T05:32:43;14.50;99.90
12152;DHT22;6139;51.274;7.128;2023-05-09T05:33:46;14.60;99.90
12152;DHT22;6139;51.274;7.128;2023-05-09T05:34:48;14.60;99.90
12152;DHT22;6139;51.274;7.128;2023-05-09T05:35:49;14.60;99.90
12152;DHT22;6139;51.274;7.128;2023-05-09T05:36:51;14.60;99.90
12152;DHT22;6139;51.274;7.128;2023-05-09T05:37:52;14.60;99.90
12152;DHT22;6139;51.274;7.128;2023-05-09T05:38:55;14.60;99.90
12152;DHT22;6139;51.274;7.128;2023-05-09T05:39:57;14.60;99.90
12152;DHT22;6139;51.274;7.128;2023-05-09T05:41:00;14.60;99.90
12152;DHT22;6139;51.274;7.128;2023-05-09T05:42:02;14.60;99.90
12152;DHT22;6139;51.274;7.128;2023-05-09T05:43:04;14.60;99.90
12152;DHT22;6139;51.274;7.128;2023-05-09T05:44:07;14.60;99.90
12152;DHT22;6139;51.274;7.128;2023-05-09T05:45:10;14.60;99.90
12152;DHT22;6139;51.274;7.128;2023-05-09T05:46:13;14.70;99.90
12152;DHT22;6139;51.274;7.128;2023-05-09T05:47:15;14.70;99.90
12152;DHT22;6139;51.274;7.128;2023-05-09T05:48:17;14.60;99.90
12152;DHT22;6139;51.274;7.128;2023-05-09T05:49:20;14.60;99.90
12152;DHT22;6139;51.274;7.128;2023-05-09T05:50:21;14.70;99.90
12152;DHT22;6139;51.274;7.128;2023-05-09T05:51:23;14.70;99.90
12152;DHT22;6139;51.274;7.128;2023-05-09T05:52:25;14.70;99.90
12152;DHT22;6139;51.274;7.128;2023-05-09T05:53:27;14.70;99.90
12152;DHT22;6139;51.274;7.128;2023-05-09T05:54:29;14.70;99.90
12152;DHT22;6139;51.274;7.128;2023-05-09T05:55:33;14.70;99.90
12152;DHT22;6139;51.274;7.128;2023-05-09T05:56:34;14.70;99.90
12152;DHT22;6139;51.274;7.128;2023-05-09T05:57:36;14.70;99.90
12152;DHT22;6139;51.274;7.128;2023-05-09T05:58:39;14.80;99.90
12152;DHT22;6139;51.274;7.128;2023-05-09T05:59:41;14.80;99.90
12152;DHT22;6139;51.274;7.128;2023-05-09T06:00:43;14.80;99.90
12152;DHT22;6139;51.274;7.128;2023-05-09T06:01:44;14.70;99.90
12152;DHT22;6139;51.274;7.128;2023-05-09T06:02:47;14.80;99.90
12152;DHT22;6139;51.274;7.128;2023-05-09T06:03:55;14.80;99.90
12152;DHT22;6139;51.274;7.128;2023-05-09T06:04:59;14.80;99.90
12152;DHT22;6139;51.274;7.128;2023-05-09T06:06:04;14.80;99.90
12152;DHT22;6139;51.274;7.128;2023-05-09T06:07:06;14.80;99.90
12152;DHT22;6139;51.274;7.128;2023-05-09T06:08:08;14.80;99.90
12152;DHT22;6139;51.274;7.128;2023-05-09T06:09:09;14.90;99.90
12152;DHT22;6139;51.274;7.128;2023-05-09T06:10:11;14.90;99.90
12152;DHT22;6139;51.274;7.128;2023-05-09T06:11:13;14.90;99.90
12152;DHT22;6139;51.274;7.128;2023-05-09T06:12:15;14.90;99.90
12152;DHT22;6139;51.274;7.128;2023-05-09T06:13:17;15.00;99.90
12152;DHT22;6139;51.274;7.128;2023-05-09T06:14:24;15.00;99.90
12152;DHT22;6139;51.274;7.128;2023-05-09T06:15:25;15.00;99.90
12152;DHT22;6139;51.274;7.128;2023-05-09T06:16:28;15.00;99.90
12152;DHT22;6139;51.274;7.128;2023-05-09T06:17:29;15.00;99.90
12152;DHT22;6139;51.274;7.128;2023-05-09T06:18:31;15.00;99.90
12152;DHT22;6139;51.274;7.128;2023-05-09T06:19:35;15.10;99.90
12152;DHT22;6139;51.274;7.128;2023-05-09T06:20:36;15.10;99.90
12152;DHT22;6139;51.274;7.128;2023-05-09T06:21:38;15.10;99.90
12152;DHT22;6139;51.274;7.128;2023-05-09T06:22:40;15.20;99.90
12152;DHT22;6139;51.274;7.128;2023-05-09T06:23:42;15.20;99.90
12152;DHT22;6139;51.274;7.128;2023-05-09T06:24:43;15.20;99.90
12152;DHT22;6139;51.274;7.128;2023-05-09T06:25:45;15.30;99.90
12152;DHT22;6139;51.274;7.128;2023-05-09T06:26:48;15.30;99.90
12152;DHT22;6139;51.274;7.128;2023-05-09T06:27:50;15.30;99.90
12152;DHT22;6139;51.274;7.128;2023-05-09T06:28:52;15.30;99.90
12152;DHT22;6139;51.274;7.128;2023-05-09T06:29:53;15.30;99.90
12152;DHT22;6139;51.274;7.128;2023-05-09T06:30:55;15.30;99.90
12152;DHT22;6139;51.274;7.128;2023-05-09T06:31:56;15.40;99.90
12152;DHT22;6139;51.274;7.128;2023-05-09T06:32:58;15.40;99.90
12152;DHT22;6139;51.274;7.128;2023-05-09T06:33:59;15.40;99.90
12152;DHT22;6139;51.274;7.128;2023-05-09T06:35:01;15.40;99.90
12152;DHT22;6139;51.274;7.128;2023-05-09T06:36:04;15.40;99.90
12152;DHT22;6139;51.274;7.128;2023-05-09T06:37:06;15.40;99.90
12152;DHT22;6139;51.274;7.128;2023-05-09T06:38:06;15.40;99.90
12152;DHT22;6139;51.274;7.128;2023-05-09T06:39:08;15.50;99.90
12152;DHT22;6139;51.274;7.128;2023-05-09T06:40:10;15.40;99.90
12152;DHT22;6139;51.274;7.128;2023-05-09T06:41:11;15.40;99.90
12152;DHT22;6139;51.274;7.128;2023-05-09T06:42:15;15.40;99.90
12152;DHT22;6139;51.274;7.128;2023-05-09T06:43:18;15.40;99.90
12152;DHT22;6139;51.274;7.128;2023-05-09T06:44:20;15.40;99.90